sensor_id;sensor_type;location;lat;lon;timestamp;temperature;humidity
47765;DHT22;33529;49.242;8.670;2022-08-25T00:01:43;22.10;89.10
47765;DHT22;33529;49.242;8.670;2022-08-25T00:04:14;22.10;89.30
47765;DHT22;33529;49.242;8.670;2022-08-25T00:06:44;22.10;89.70
47765;DHT22;33529;49.242;8.670;2022-08-25T00:09:14;22.00;90.10
47765;DHT22;33529;49.242;8.670;2022-08-25T00:11:42;22.00;90.20
47765;DHT22;33529;49.242;8.670;2022-08-25T00:14:13;21.90;90.40
47765;DHT22;33529;49.242;8.670;2022-08-25T00:16:40;21.90;90.50
47765;DHT22;33529;49.242;8.670;2022-08-25T00:19:11;21.80;90.70
47765;DHT22;33529;49.242;8.670;2022-08-25T00:21:38;21.80;90.70
47765;DHT22;33529;49.242;8.670;2022-08-25T00:24:07;21.80;90.90
47765;DHT22;33529;49.242;8.670;2022-08-25T00:26:38;21.80;91.10
47765;DHT22;33529;49.242;8.670;2022-08-25T00:29:06;21.70;91.20
47765;DHT22;33529;49.242;8.670;2022-08-25T00:31:34;21.70;91.40
47765;DHT22;33529;49.242;8.670;2022-08-25T00:34:13;21.60;91.90
47765;DHT22;33529;49.242;8.670;2022-08-25T00:36:42;21.60;91.70
47765;DHT22;33529;49.242;8.670;2022-08-25T00:39:09;21.50;92.00
47765;DHT22;33529;49.242;8.670;2022-08-25T00:41:38;21.60;92.00
47765;DHT22;33529;49.242;8.670;2022-08-25T00:44:07;21.50;92.10
47765;DHT22;33529;49.242;8.670;2022-08-25T00:46:50;21.40;92.40
47765;DHT22;33529;49.242;8.670;2022-08-25T00:49:31;21.40;92.30
47765;DHT22;33529;49.242;8.670;2022-08-25T00:54:47;21.40;92.90
47765;DHT22;33529;49.242;8.670;2022-08-25T00:57:18;21.30;93.20
47765;DHT22;33529;49.242;8.670;2022-08-25T01:00:00;21.20;93.70
47765;DHT22;33529;49.242;8.670;2022-08-25T01:02:27;21.20;93.90
47765;DHT22;33529;49.242;8.670;2022-08-25T01:04:54;21.10;94.00
47765;DHT22;33529;49.242;8.670;2022-08-25T01:07:21;21.10;94.40
47765;DHT22;33529;49.242;8.670;2022-08-25T01:09:51;21.10;94.30
47765;DHT22;33529;49.242;8.670;2022-08-25T01:12:19;21.10;94.80
47765;DHT22;33529;49.242;8.670;2022-08-25T01:14:47;21.10;94.70
47765;DHT22;33529;49.242;8.670;2022-08-25T01:17:15;21.10;94.90
47765;DHT22;33529;49.242;8.670;2022-08-25T01:19:42;21.10;95.10
47765;DHT22;33529;49.242;8.670;2022-08-25T01:22:09;21.10;95.30
47765;DHT22;33529;49.242;8.670;2022-08-25T01:24:49;21.00;95.60
47765;DHT22;33529;49.242;8.670;2022-08-25T01:27:18;20.90;96.20
47765;DHT22;33529;49.242;8.670;2022-08-25T01:29:45;20.70;96.50
47765;DHT22;33529;49.242;8.670;2022-08-25T01:32:13;20.70;97.00
47765;DHT22;33529;49.242;8.670;2022-08-25T01:34:42;20.70;97.10
47765;DHT22;33529;49.242;8.670;2022-08-25T01:37:11;20.70;97.30
47765;DHT22;33529;49.242;8.670;2022-08-25T01:39:40;20.70;97.60
47765;DHT22;33529;49.242;8.670;2022-08-25T01:42:22;20.70;97.90
47765;DHT22;33529;49.242;8.670;2022-08-25T01:44:50;20.60;98.10
47765;DHT22;33529;49.242;8.670;2022-08-25T01:47:17;20.60;98.20
47765;DHT22;33529;49.242;8.670;2022-08-25T01:49:44;20.50;98.60
47765;DHT22;33529;49.242;8.670;2022-08-25T01:52:50;20.50;98.70
47765;DHT22;33529;49.242;8.670;2022-08-25T01:55:19;20.50;99.30
47765;DHT22;33529;49.242;8.670;2022-08-25T01:57:46;20.50;99.30
47765;DHT22;33529;49.242;8.670;2022-08-25T02:00:15;20.40;99.60
47765;DHT22;33529;49.242;8.670;2022-08-25T02:02:44;20.40;99.90
47765;DHT22;33529;49.242;8.670;2022-08-25T02:05:14;20.50;99.90
47765;DHT22;33529;49.242;8.670;2022-08-25T02:07:48;20.50;99.90
47765;DHT22;33529;49.242;8.670;2022-08-25T02:10:15;20.50;99.90
47765;DHT22;33529;49.242;8.670;2022-08-25T02:12:42;20.60;99.90
47765;DHT22;33529;49.242;8.670;2022-08-25T02:15:09;20.50;99.90
47765;DHT22;33529;49.242;8.670;2022-08-25T02:17:36;20.40;99.90
47765;DHT22;33529;49.242;8.670;2022-08-25T02:20:05;20.30;99.90
47765;DHT22;33529;49.242;8.670;2022-08-25T02:22:34;20.30;99.90
47765;DHT22;33529;49.242;8.670;2022-08-25T02:25:01;20.20;99.90
47765;DHT22;33529;49.242;8.670;2022-08-25T02:27:27;20.10;99.90
47765;DHT22;33529;49.242;8.670;2022-08-25T02:29:54;20.00;99.90
47765;DHT22;33529;49.242;8.670;2022-08-25T02:32:21;20.00;99.90
47765;DHT22;33529;49.242;8.670;2022-08-25T02:34:48;19.90;99.90
47765;DHT22;33529;49.242;8.670;2022-08-25T02:37:15;19.90;99.90
47765;DHT22;33529;49.242;8.670;2022-08-25T02:39:42;19.90;99.90
47765;DHT22;33529;49.242;8.670;2022-08-25T02:42:09;19.80;99.90
47765;DHT22;33529;49.242;8.670;2022-08-25T02:44:36;19.80;99.90
47765;DHT22;33529;49.242;8.670;2022-08-25T02:47:03;19.80;99.90
47765;DHT22;33529;49.242;8.670;2022-08-25T02:49:30;19.80;99.90
47765;DHT22;33529;49.242;8.670;2022-08-25T02:51:58;19.70;99.90
47765;DHT22;33529;49.242;8.670;2022-08-25T02:54:27;19.70;99.90
47765;DHT22;33529;49.242;8.670;2022-08-25T02:56:54;19.60;99.90
47765;DHT22;33529;49.242;8.670;2022-08-25T02:59:21;19.60;99.90
47765;DHT22;33529;49.242;8.670;2022-08-25T03:01:47;19.60;99.90
47765;DHT22;33529;49.242;8.670;2022-08-25T03:04:14;19.60;99.90
47765;DHT22;33529;49.242;8.670;2022-08-25T03:06:41;19.70;99.90
47765;DHT22;33529;49.242;8.670;2022-08-25T03:09:09;19.70;99.90
47765;DHT22;33529;49.242;8.670;2022-08-25T03:11:36;19.70;99.90
47765;DHT22;33529;49.242;8.670;2022-08-25T03:14:08;19.80;99.90
47765;DHT22;33529;49.242;8.670;2022-08-25T03:16:36;19.80;99.90
47765;DHT22;33529;49.242;8.670;2022-08-25T03:19:04;19.90;99.90
47765;DHT22;33529;49.242;8.670;2022-08-25T03:21:31;19.80;99.90
47765;DHT22;33529;49.242;8.670;2022-08-25T03:23:58;19.80;99.90
47765;DHT22;33529;49.242;8.670;2022-08-25T03:26:25;19.80;99.90
47765;DHT22;33529;49.242;8.670;2022-08-25T03:29:11;19.80;99.90
47765;DHT22;33529;49.242;8.670;2022-08-25T03:31:39;19.80;99.90
47765;DHT22;33529;49.242;8.670;2022-08-25T03:34:08;19.70;99.90
47765;DHT22;33529;49.242;8.670;2022-08-25T03:36:36;19.70;99.90
47765;DHT22;33529;49.242;8.670;2022-08-25T03:39:04;19.70;99.90
47765;DHT22;33529;49.242;8.670;2022-08-25T03:41:31;19.60;99.90
47765;DHT22;33529;49.242;8.670;2022-08-25T03:43:59;19.50;99.90
47765;DHT22;33529;49.242;8.670;2022-08-25T03:46:35;19.50;99.90
47765;DHT22;33529;49.242;8.670;2022-08-25T03:49:04;19.40;99.90
47765;DHT22;33529;49.242;8.670;2022-08-25T03:51:36;19.40;99.90
47765;DHT22;33529;49.242;8.670;2022-08-25T03:54:03;19.20;99.90
47765;DHT22;33529;49.242;8.670;2022-08-25T03:56:30;19.20;99.90
47765;DHT22;33529;49.242;8.670;2022-08-25T03:58:58;19.10;99.90
47765;DHT22;33529;49.242;8.670;2022-08-25T04:01:25;19.10;99.90
47765;DHT22;33529;49.242;8.670;2022-08-25T04:03:52;19.00;99.90
47765;DHT22;33529;49.242;8.670;2022-08-25T04:06:20;19.00;99.90
47765;DHT22;33529;49.242;8.670;2022-08-25T04:08:47;19.00;99.90
47765;DHT22;33529;49.242;8.670;2022-08-25T04:11:17;19.00;99.90
47765;DHT22;33529;49.242;8.670;2022-08-25T04:13:44;19.00;99.90
47765;DHT22;33529;49.242;8.670;2022-08-25T04:16:15;18.90;99.90
47765;DHT22;33529;49.242;8.670;2022-08-25T04:18:42;19.00;99.90
47765;DHT22;33529;49.242;8.670;2022-08-25T04:21:10;18.90;99.90
47765;DHT22;33529;49.242;8.670;2022-08-25T04:23:42;18.90;99.90
47765;DHT22;33529;49.242;8.670;2022-08-25T04:26:15;18.90;99.90
47765;DHT22;33529;49.242;8.670;2022-08-25T04:28:42;18.90;99.90
47765;DHT22;33529;49.242;8.670;2022-08-25T04:31:11;18.90;99.90
47765;DHT22;33529;49.242;8.670;2022-08-25T04:33:40;18.80;99.90
47765;DHT22;33529;49.242;8.670;2022-08-25T04:36:09;18.80;99.90
47765;DHT22;33529;49.242;8.670;2022-08-25T04:38:39;18.80;99.90
47765;DHT22;33529;49.242;8.670;2022-08-25T04:41:09;18.80;99.90
47765;DHT22;33529;49.242;8.670;2022-08-25T04:43:37;18.90;99.90
47765;DHT22;33529;49.242;8.670;2022-08-25T04:46:09;19.00;99.90
47765;DHT22;33529;49.242;8.670;2022-08-25T04:48:46;19.00;99.90
47765;DHT22;33529;49.242;8.670;2022-08-25T04:51:16;19.00;99.90
47765;DHT22;33529;49.242;8.670;2022-08-25T04:53:44;19.00;99.90
47765;DHT22;33529;49.242;8.670;2022-08-25T04:56:14;19.10;99.90
47765;DHT22;33529;49.242;8.670;2022-08-25T04:58:42;19.10;99.90
47765;DHT22;33529;49.242;8.670;2022-08-25T05:01:15;19.00;99.90
47765;DHT22;33529;49.242;8.670;2022-08-25T05:03:44;19.00;99.90
47765;DHT22;33529;49.242;8.670;2022-08-25T05:06:12;19.10;99.90
47765;DHT22;33529;49.242;8.670;2022-08-25T05:08:42;19.10;99.90
47765;DHT22;33529;49.242;8.670;2022-08-25T05:11:13;19.10;99.90
47765;DHT22;33529;49.242;8.670;2022-08-25T05:13:41;19.10;99.90
47765;DHT22;33529;49.242;8.670;2022-08-25T05:16:08;19.10;99.90
47765;DHT22;33529;49.242;8.670;2022-08-25T05:18:37;19.20;99.90
47765;DHT22;33529;49.242;8.670;2022-08-25T05:21:06;19.20;99.90
47765;DHT22;33529;49.242;8.670;2022-08-25T05:23:33;19.30;99.90
47765;DHT22;33529;49.242;8.670;2022-08-25T05:26:05;19.30;99.90
47765;DHT22;33529;49.242;8.670;2022-08-25T05:28:34;19.40;99.90
47765;DHT22;33529;49.242;8.670;2022-08-25T05:31:02;19.50;99.90
47765;DHT22;33529;49.242;8.670;2022-08-25T05:33:31;19.50;99.90
47765;DHT22;33529;49.242;8.670;2022-08-25T05:35:59;19.60;99.90
47765;DHT22;33529;49.242;8.670;2022-08-25T05:38:26;19.70;99.90
47765;DHT22;33529;49.242;8.670;2022-08-25T05:41:14;19.80;99.90
47765;DHT22;33529;49.242;8.670;2022-08-25T05:43:46;19.80;99.90
47765;DHT22;33529;49.242;8.670;2022-08-25T05:46:16;19.90;99.90
47765;DHT22;33529;49.242;8.670;2022-08-25T05:48:43;20.00;99.90
47765;DHT22;33529;49.242;8.670;2022-08-25T05:51:11;20.10;99.90
47765;DHT22;33529;49.242;8.670;2022-08-25T05:53:41;20.20;99.90
47765;DHT22;33529;49.242;8.670;2022-08-25T05:56:09;20.30;99.90
47765;DHT22;33529;49.242;8.670;2022-08-25T05:58:36;20.50;99.90
47765;DHT22;33529;49.242;8.670;2022-08-25T06:01:03;20.60;99.90
47765;DHT22;33529;49.242;8.670;2022-08-25T06:03:50;20.70;99.90
47765;DHT22;33529;49.242;8.670;2022-08-25T06:06:22;20.90;99.90
47765;DHT22;33529;49.242;8.670;2022-08-25T06:08:50;20.90;99.90
47765;DHT22;33529;49.242;8.670;2022-08-25T06:11:17;21.10;99.90
47765;DHT22;33529;49.242;8.670;2022-08-25T06:13:45;21.20;99.90
47765;DHT22;33529;49.242;8.670;2022-08-25T06:16:12;21.40;99.90
47765;DHT22;33529;49.242;8.670;2022-08-25T06:18:39;21.40;99.90
47765;DHT22;33529;49.242;8.670;2022-08-25T06:21:13;21.50;99.90
47765;DHT22;33529;49.242;8.670;2022-08-25T06:23:40;21.70;99.90
47765;DHT22;33529;49.242;8.670;2022-08-25T06:26:11;21.90;99.90
47765;DHT22;33529;49.242;8.670;2022-08-25T06:28:47;22.00;99.90
47765;DHT22;33529;49.242;8.670;2022-08-25T06:31:14;22.20;99.90
47765;DHT22;33529;49.242;8.670;2022-08-25T06:33:42;22.30;99.90
47765;DHT22;33529;49.242;8.670;2022-08-25T06:36:09;22.30;99.90
47765;DHT22;33529;49.242;8.670;2022-08-25T06:38:36;22.50;99.90
47765;DHT22;33529;49.242;8.670;2022-08-25T06:41:04;22.70;99.90
47765;DHT22;33529;49.242;8.670;2022-08-25T06:43:32;22.70;99.90
47765;DHT22;33529;49.242;8.670;2022-08-25T06:46:14;22.70;99.90
47765;DHT22;33529;49.242;8.670;2022-08-25T06:48:42;22.70;99.90
47765;DHT22;33529;49.242;8.670;2022-08-25T06:51:12;22.90;99.90
47765;DHT22;33529;49.242;8.670;2022-08-25T06:53:40;23.00;99.90
47765;DHT22;33529;49.242;8.670;2022-08-25T06:56:08;23.20;99.90
47765;DHT22;33529;49.242;8.670;2022-08-25T06:58:36;23.40;99.90
47765;DHT22;33529;49.242;8.670;2022-08-25T07:01:17;23.50;99.90
47765;DHT22;33529;49.242;8.670;2022-08-25T07:03:46;23.60;99.90
47765;DHT22;33529;49.242;8.670;2022-08-25T07:06:15;23.60;99.90
47765;DHT22;33529;49.242;8.670;2022-08-25T07:08:45;23.70;99.90
47765;DHT22;33529;49.242;8.670;2022-08-25T07:11:12;23.60;99.90
47765;DHT22;33529;49.242;8.670;2022-08-25T07:13:43;23.70;99.90
47765;DHT22;33529;49.242;8.670;2022-08-25T07:16:10;23.80;99.90
47765;DHT22;33529;49.242;8.670;2022-08-25T07:18:38;23.90;99.90
47765;DHT22;33529;49.242;8.670;2022-08-25T07:21:05;23.90;99.90
47765;DHT22;33529;49.242;8.670;2022-08-25T07:23:35;23.90;99.90
47765;DHT22;33529;49.242;8.670;2022-08-25T07:26:14;24.10;99.90
47765;DHT22;33529;49.242;8.670;2022-08-25T07:29:05;24.20;99.90
47765;DHT22;33529;49.242;8.670;2022-08-25T07:31:33;24.20;99.70
47765;DHT22;33529;49.242;8.670;2022-08-25T07:34:00;24.30;99.20
47765;DHT22;33529;49.242;8.670;2022-08-25T07:36:45;24.50;99.10
47765;DHT22;33529;49.242;8.670;2022-08-25T07:39:12;24.80;98.80
47765;DHT22;33529;49.242;8.670;2022-08-25T07:41:40;24.90;98.70
47765;DHT22;33529;49.242;8.670;2022-08-25T07:44:09;25.20;97.80
47765;DHT22;33529;49.242;8.670;2022-08-25T07:46:37;25.20;97.60
47765;DHT22;33529;49.242;8.670;2022-08-25T07:49:04;25.10;97.40
47765;DHT22;33529;49.242;8.670;2022-08-25T07:51:43;25.10;97.80
47765;DHT22;33529;49.242;8.670;2022-08-25T07:54:31;25.30;97.40
47765;DHT22;33529;49.242;8.670;2022-08-25T07:57:01;25.50;97.30
47765;DHT22;33529;49.242;8.670;2022-08-25T07:59:30;25.60;96.70
47765;DHT22;33529;49.242;8.670;2022-08-25T08:02:14;25.60;96.70
47765;DHT22;33529;49.242;8.670;2022-08-25T08:04:46;25.80;96.60
47765;DHT22;33529;49.242;8.670;2022-08-25T08:07:17;25.80;95.90
47765;DHT22;33529;49.242;8.670;2022-08-25T08:09:44;25.90;95.70
47765;DHT22;33529;49.242;8.670;2022-08-25T08:12:11;25.90;95.60
47765;DHT22;33529;49.242;8.670;2022-08-25T08:14:40;26.00;95.60
47765;DHT22;33529;49.242;8.670;2022-08-25T08:17:12;26.10;95.20
47765;DHT22;33529;49.242;8.670;2022-08-25T08:19:39;26.10;95.00
47765;DHT22;33529;49.242;8.670;2022-08-25T08:22:12;26.20;94.80
47765;DHT22;33529;49.242;8.670;2022-08-25T08:24:42;26.40;94.60
47765;DHT22;33529;49.242;8.670;2022-08-25T08:27:21;26.50;94.20
47765;DHT22;33529;49.242;8.670;2022-08-25T08:29:48;26.50;94.40
47765;DHT22;33529;49.242;8.670;2022-08-25T08:32:15;26.60;94.00
47765;DHT22;33529;49.242;8.670;2022-08-25T08:34:44;26.70;93.80
47765;DHT22;33529;49.242;8.670;2022-08-25T08:37:17;26.60;93.50
47765;DHT22;33529;49.242;8.670;2022-08-25T08:39:48;26.60;93.60
47765;DHT22;33529;49.242;8.670;2022-08-25T08:42:49;26.80;93.70
47765;DHT22;33529;49.242;8.670;2022-08-25T08:45:29;26.90;93.50
47765;DHT22;33529;49.242;8.670;2022-08-25T08:51:12;27.10;92.10
47765;DHT22;33529;49.242;8.670;2022-08-25T08:53:56;27.10;91.80
47765;DHT22;33529;49.242;8.670;2022-08-25T08:56:28;27.20;92.30
47765;DHT22;33529;49.242;8.670;2022-08-25T08:59:03;27.10;91.90
47765;DHT22;33529;49.242;8.670;2022-08-25T09:01:38;27.40;92.00
47765;DHT22;33529;49.242;8.670;2022-08-25T09:04:12;27.50;91.60
47765;DHT22;33529;49.242;8.670;2022-08-25T09:06:46;27.60;91.30
47765;DHT22;33529;49.242;8.670;2022-08-25T09:09:19;27.60;91.30
47765;DHT22;33529;49.242;8.670;2022-08-25T09:12:12;27.80;91.30
47765;DHT22;33529;49.242;8.670;2022-08-25T09:17:52;27.90;90.40
47765;DHT22;33529;49.242;8.670;2022-08-25T09:23:31;27.80;90.20
47765;DHT22;33529;49.242;8.670;2022-08-25T09:26:19;28.00;90.00
47765;DHT22;33529;49.242;8.670;2022-08-25T09:28:51;27.90;89.10
47765;DHT22;33529;49.242;8.670;2022-08-25T09:31:33;28.00;89.20
47765;DHT22;33529;49.242;8.670;2022-08-25T09:34:05;28.10;88.10
47765;DHT22;33529;49.242;8.670;2022-08-25T09:36:33;28.10;88.20
47765;DHT22;33529;49.242;8.670;2022-08-25T09:39:05;28.30;87.80
47765;DHT22;33529;49.242;8.670;2022-08-25T09:41:43;28.20;87.70
47765;DHT22;33529;49.242;8.670;2022-08-25T09:44:33;28.20;87.30
47765;DHT22;33529;49.242;8.670;2022-08-25T09:47:06;28.20;87.40
47765;DHT22;33529;49.242;8.670;2022-08-25T09:49:42;28.40;87.60
47765;DHT22;33529;49.242;8.670;2022-08-25T09:57:35;28.10;86.00
47765;DHT22;33529;49.242;8.670;2022-08-25T10:00:16;28.10;85.90
47765;DHT22;33529;49.242;8.670;2022-08-25T10:03:04;28.20;86.20
47765;DHT22;33529;49.242;8.670;2022-08-25T10:05:59;28.30;84.50
47765;DHT22;33529;49.242;8.670;2022-08-25T10:08:30;28.50;85.30
47765;DHT22;33529;49.242;8.670;2022-08-25T10:11:00;28.50;84.20
47765;DHT22;33529;49.242;8.670;2022-08-25T10:13:45;28.50;83.10
47765;DHT22;33529;49.242;8.670;2022-08-25T10:16:27;28.00;83.70
47765;DHT22;33529;49.242;8.670;2022-08-25T10:19:11;28.10;85.30
47765;DHT22;33529;49.242;8.670;2022-08-25T10:21:40;28.00;85.10
47765;DHT22;33529;49.242;8.670;2022-08-25T10:24:09;28.20;85.30
47765;DHT22;33529;49.242;8.670;2022-08-25T10:27:03;28.30;84.20
47765;DHT22;33529;49.242;8.670;2022-08-25T10:29:56;28.50;83.00
47765;DHT22;33529;49.242;8.670;2022-08-25T10:32:38;28.60;83.70
47765;DHT22;33529;49.242;8.670;2022-08-25T10:35:34;28.70;82.80
47765;DHT22;33529;49.242;8.670;2022-08-25T10:41:49;29.10;81.30
47765;DHT22;33529;49.242;8.670;2022-08-25T10:50:00;28.70;82.40
47765;DHT22;33529;49.242;8.670;2022-08-25T10:55:25;28.40;81.50
47765;DHT22;33529;49.242;8.670;2022-08-25T11:00:57;28.60;80.90
47765;DHT22;33529;49.242;8.670;2022-08-25T11:03:45;28.80;81.20
47765;DHT22;33529;49.242;8.670;2022-08-25T11:06:24;28.80;80.00
47765;DHT22;33529;49.242;8.670;2022-08-25T11:08:58;29.00;80.00
47765;DHT22;33529;49.242;8.670;2022-08-25T11:11:41;28.80;79.20
47765;DHT22;33529;49.242;8.670;2022-08-25T11:14:19;28.90;79.20
47765;DHT22;33529;49.242;8.670;2022-08-25T11:17:09;28.50;79.60
47765;DHT22;33529;49.242;8.670;2022-08-25T11:19:42;28.60;80.50
47765;DHT22;33529;49.242;8.670;2022-08-25T11:30:13;29.30;78.60
47765;DHT22;33529;49.242;8.670;2022-08-25T11:32:44;29.60;77.50
47765;DHT22;33529;49.242;8.670;2022-08-25T11:35:15;29.60;78.10
47765;DHT22;33529;49.242;8.670;2022-08-25T11:41:03;29.60;76.80
47765;DHT22;33529;49.242;8.670;2022-08-25T11:44:08;29.80;77.00
47765;DHT22;33529;49.242;8.670;2022-08-25T11:58:29;30.00;75.60
47765;DHT22;33529;49.242;8.670;2022-08-25T12:01:02;30.10;76.00
47765;DHT22;33529;49.242;8.670;2022-08-25T12:11:43;29.90;74.30
47765;DHT22;33529;49.242;8.670;2022-08-25T12:27:03;30.30;74.70
47765;DHT22;33529;49.242;8.670;2022-08-25T12:29:58;30.40;74.20
47765;DHT22;33529;49.242;8.670;2022-08-25T12:45:47;30.20;72.50
47765;DHT22;33529;49.242;8.670;2022-08-25T12:50:59;30.30;72.00
47765;DHT22;33529;49.242;8.670;2022-08-25T12:56:21;30.40;72.60
47765;DHT22;33529;49.242;8.670;2022-08-25T13:01:52;30.50;71.90
47765;DHT22;33529;49.242;8.670;2022-08-25T13:10:24;30.30;71.50
47765;DHT22;33529;49.242;8.670;2022-08-25T13:16:03;30.60;70.20
47765;DHT22;33529;49.242;8.670;2022-08-25T13:18:34;30.50;70.30
47765;DHT22;33529;49.242;8.670;2022-08-25T13:23:36;30.60;69.90
47765;DHT22;33529;49.242;8.670;2022-08-25T13:26:04;30.70;70.60
47765;DHT22;33529;49.242;8.670;2022-08-25T13:28:35;30.80;69.40
47765;DHT22;33529;49.242;8.670;2022-08-25T13:31:18;30.60;70.00
47765;DHT22;33529;49.242;8.670;2022-08-25T13:33:57;30.30;70.00
47765;DHT22;33529;49.242;8.670;2022-08-25T13:36:26;30.40;70.00
47765;DHT22;33529;49.242;8.670;2022-08-25T13:39:24;30.50;69.90
47765;DHT22;33529;49.242;8.670;2022-08-25T13:42:16;30.50;69.50
47765;DHT22;33529;49.242;8.670;2022-08-25T13:44:43;30.60;68.70
47765;DHT22;33529;49.242;8.670;2022-08-25T13:47:39;30.90;69.80
47765;DHT22;33529;49.242;8.670;2022-08-25T13:50:41;31.10;69.10
47765;DHT22;33529;49.242;8.670;2022-08-25T13:53:21;31.20;69.00
47765;DHT22;33529;49.242;8.670;2022-08-25T13:55:58;31.50;68.20
47765;DHT22;33529;49.242;8.670;2022-08-25T13:58:28;31.80;68.50
47765;DHT22;33529;49.242;8.670;2022-08-25T14:01:18;32.20;67.40
47765;DHT22;33529;49.242;8.670;2022-08-25T14:07:24;32.50;67.50
47765;DHT22;33529;49.242;8.670;2022-08-25T14:09:57;32.50;66.10
47765;DHT22;33529;49.242;8.670;2022-08-25T14:12:39;32.40;65.60
47765;DHT22;33529;49.242;8.670;2022-08-25T14:15:11;32.40;65.30
47765;DHT22;33529;49.242;8.670;2022-08-25T14:17:42;32.30;65.90
47765;DHT22;33529;49.242;8.670;2022-08-25T14:20:24;32.20;65.90
47765;DHT22;33529;49.242;8.670;2022-08-25T14:22:56;32.20;64.90
47765;DHT22;33529;49.242;8.670;2022-08-25T14:25:26;32.20;65.60
47765;DHT22;33529;49.242;8.670;2022-08-25T14:28:01;32.30;64.70
47765;DHT22;33529;49.242;8.670;2022-08-25T14:30:35;32.30;64.70
47765;DHT22;33529;49.242;8.670;2022-08-25T14:33:03;32.30;64.80
47765;DHT22;33529;49.242;8.670;2022-08-25T14:35:32;32.30;64.30
47765;DHT22;33529;49.242;8.670;2022-08-25T14:38:06;32.30;65.20
47765;DHT22;33529;49.242;8.670;2022-08-25T14:40:34;32.50;65.00
47765;DHT22;33529;49.242;8.670;2022-08-25T14:43:01;32.60;65.10
47765;DHT22;33529;49.242;8.670;2022-08-25T14:45:28;32.80;64.70
47765;DHT22;33529;49.242;8.670;2022-08-25T14:48:02;32.60;63.80
47765;DHT22;33529;49.242;8.670;2022-08-25T14:50:36;32.60;64.70
47765;DHT22;33529;49.242;8.670;2022-08-25T14:53:09;32.60;64.30
47765;DHT22;33529;49.242;8.670;2022-08-25T14:55:36;32.30;64.40
47765;DHT22;33529;49.242;8.670;2022-08-25T14:58:05;32.30;64.20
47765;DHT22;33529;49.242;8.670;2022-08-25T15:00:39;32.20;64.50
47765;DHT22;33529;49.242;8.670;2022-08-25T15:03:07;32.30;64.40
47765;DHT22;33529;49.242;8.670;2022-08-25T15:05:36;32.10;64.70
47765;DHT22;33529;49.242;8.670;2022-08-25T15:08:03;32.10;65.50
47765;DHT22;33529;49.242;8.670;2022-08-25T15:10:48;32.20;65.60
47765;DHT22;33529;49.242;8.670;2022-08-25T15:13:16;32.30;65.30
47765;DHT22;33529;49.242;8.670;2022-08-25T15:15:43;32.30;65.40
47765;DHT22;33529;49.242;8.670;2022-08-25T15:18:19;32.40;65.40
47765;DHT22;33529;49.242;8.670;2022-08-25T15:20:47;32.40;64.80
47765;DHT22;33529;49.242;8.670;2022-08-25T15:23:17;32.40;65.00
47765;DHT22;33529;49.242;8.670;2022-08-25T15:25:48;32.60;63.90
47765;DHT22;33529;49.242;8.670;2022-08-25T15:28:19;32.70;63.90
47765;DHT22;33529;49.242;8.670;2022-08-25T15:30:49;32.60;64.20
47765;DHT22;33529;49.242;8.670;2022-08-25T15:33:16;32.70;64.30
47765;DHT22;33529;49.242;8.670;2022-08-25T15:35:43;33.20;63.40
47765;DHT22;33529;49.242;8.670;2022-08-25T15:38:11;34.00;62.90
47765;DHT22;33529;49.242;8.670;2022-08-25T15:40:38;35.00;61.60
47765;DHT22;33529;49.242;8.670;2022-08-25T15:43:06;35.30;60.70
47765;DHT22;33529;49.242;8.670;2022-08-25T15:45:33;36.10;60.30
47765;DHT22;33529;49.242;8.670;2022-08-25T15:48:03;37.40;59.60
47765;DHT22;33529;49.242;8.670;2022-08-25T15:50:35;38.90;57.50
47765;DHT22;33529;49.242;8.670;2022-08-25T15:53:04;40.30;55.30
47765;DHT22;33529;49.242;8.670;2022-08-25T15:55:38;41.30;54.20
47765;DHT22;33529;49.242;8.670;2022-08-25T15:58:05;41.60;53.00
47765;DHT22;33529;49.242;8.670;2022-08-25T16:00:34;41.70;52.40
47765;DHT22;33529;49.242;8.670;2022-08-25T16:03:03;41.50;52.10
47765;DHT22;33529;49.242;8.670;2022-08-25T16:05:41;41.20;52.20
47765;DHT22;33529;49.242;8.670;2022-08-25T16:08:14;40.80;51.50
47765;DHT22;33529;49.242;8.670;2022-08-25T16:10:45;40.20;52.90
47765;DHT22;33529;49.242;8.670;2022-08-25T16:13:12;39.30;52.40
47765;DHT22;33529;49.242;8.670;2022-08-25T16:15:39;38.60;53.50
47765;DHT22;33529;49.242;8.670;2022-08-25T16:18:06;38.00;54.10
47765;DHT22;33529;49.242;8.670;2022-08-25T16:20:34;37.10;55.10
47765;DHT22;33529;49.242;8.670;2022-08-25T16:23:02;36.40;55.00
47765;DHT22;33529;49.242;8.670;2022-08-25T16:25:30;35.70;55.50
47765;DHT22;33529;49.242;8.670;2022-08-25T16:27:57;35.00;56.50
47765;DHT22;33529;49.242;8.670;2022-08-25T16:30:24;34.60;57.20
47765;DHT22;33529;49.242;8.670;2022-08-25T16:32:52;34.30;57.20
47765;DHT22;33529;49.242;8.670;2022-08-25T16:35:19;33.90;58.70
47765;DHT22;33529;49.242;8.670;2022-08-25T16:37:47;33.50;58.80
47765;DHT22;33529;49.242;8.670;2022-08-25T16:40:15;33.30;59.40
47765;DHT22;33529;49.242;8.670;2022-08-25T16:42:45;33.00;58.80
47765;DHT22;33529;49.242;8.670;2022-08-25T16:45:12;33.00;59.40
47765;DHT22;33529;49.242;8.670;2022-08-25T16:47:39;32.80;59.30
47765;DHT22;33529;49.242;8.670;2022-08-25T16:50:09;32.60;59.20
47765;DHT22;33529;49.242;8.670;2022-08-25T16:52:36;32.30;59.90
47765;DHT22;33529;49.242;8.670;2022-08-25T16:55:27;32.20;60.30
47765;DHT22;33529;49.242;8.670;2022-08-25T16:58:06;32.00;61.00
47765;DHT22;33529;49.242;8.670;2022-08-25T17:00:35;31.80;61.00
47765;DHT22;33529;49.242;8.670;2022-08-25T17:03:03;31.60;61.30
47765;DHT22;33529;49.242;8.670;2022-08-25T17:05:32;31.50;61.60
47765;DHT22;33529;49.242;8.670;2022-08-25T17:07:59;31.30;61.70
47765;DHT22;33529;49.242;8.670;2022-08-25T17:10:45;31.10;61.90
47765;DHT22;33529;49.242;8.670;2022-08-25T17:13:12;30.90;62.30
47765;DHT22;33529;49.242;8.670;2022-08-25T17:15:45;30.70;62.30
47765;DHT22;33529;49.242;8.670;2022-08-25T17:18:18;30.60;62.70
47765;DHT22;33529;49.242;8.670;2022-08-25T17:20:45;30.60;62.80
47765;DHT22;33529;49.242;8.670;2022-08-25T17:23:16;30.50;63.00
47765;DHT22;33529;49.242;8.670;2022-08-25T17:25:49;30.50;62.90
47765;DHT22;33529;49.242;8.670;2022-08-25T17:28:17;30.40;63.00
47765;DHT22;33529;49.242;8.670;2022-08-25T17:30:44;30.40;64.30
47765;DHT22;33529;49.242;8.670;2022-08-25T17:33:11;30.30;65.40
47765;DHT22;33529;49.242;8.670;2022-08-25T17:35:42;30.30;63.90
47765;DHT22;33529;49.242;8.670;2022-08-25T17:38:10;30.10;65.30
47765;DHT22;33529;49.242;8.670;2022-08-25T17:40:38;30.00;65.80
47765;DHT22;33529;49.242;8.670;2022-08-25T17:43:06;29.90;66.60
47765;DHT22;33529;49.242;8.670;2022-08-25T17:45:35;29.80;66.30
47765;DHT22;33529;49.242;8.670;2022-08-25T17:48:05;29.70;66.00
47765;DHT22;33529;49.242;8.670;2022-08-25T17:50:34;29.60;66.70
47765;DHT22;33529;49.242;8.670;2022-08-25T17:53:01;29.60;66.90